sensor_id;sensor_type;location;lat;lon;timestamp;temperature;humidity
47022;DHT22;32779;52.264;6.154;2023-08-24T00:01:52;17.20;99.90
47022;DHT22;32779;52.264;6.154;2023-08-24T00:04:17;17.10;99.90
47022;DHT22;32779;52.264;6.154;2023-08-24T00:06:43;17.10;99.90
47022;DHT22;32779;52.264;6.154;2023-08-24T00:09:08;17.10;99.90
47022;DHT22;32779;52.264;6.154;2023-08-24T00:11:34;17.10;99.90
47022;DHT22;32779;52.264;6.154;2023-08-24T00:13:59;17.10;99.90
47022;DHT22;32779;52.264;6.154;2023-08-24T00:16:25;17.00;99.90
47022;DHT22;32779;52.264;6.154;2023-08-24T00:18:50;17.00;99.90
47022;DHT22;32779;52.264;6.154;2023-08-24T00:21:16;17.10;99.90
47022;DHT22;32779;52.264;6.154;2023-08-24T00:23:48;17.10;99.90
47022;DHT22;32779;52.264;6.154;2023-08-24T00:26:14;17.10;99.90
47022;DHT22;32779;52.264;6.154;2023-08-24T00:28:42;17.10;99.90
47022;DHT22;32779;52.264;6.154;2023-08-24T00:31:08;17.20;99.90
47022;DHT22;32779;52.264;6.154;2023-08-24T00:33:33;17.10;99.90
47022;DHT22;32779;52.264;6.154;2023-08-24T00:35:59;17.10;99.90
47022;DHT22;32779;52.264;6.154;2023-08-24T00:38:25;17.10;99.90
47022;DHT22;32779;52.264;6.154;2023-08-24T00:40:51;17.10;99.90
47022;DHT22;32779;52.264;6.154;2023-08-24T00:43:18;17.10;99.90
47022;DHT22;32779;52.264;6.154;2023-08-24T00:45:47;17.20;99.90
47022;DHT22;32779;52.264;6.154;2023-08-24T00:48:12;17.20;99.90
47022;DHT22;32779;52.264;6.154;2023-08-24T00:50:38;17.20;99.90
47022;DHT22;32779;52.264;6.154;2023-08-24T00:53:04;17.20;99.90
47022;DHT22;32779;52.264;6.154;2023-08-24T00:55:29;17.20;99.90
47022;DHT22;32779;52.264;6.154;2023-08-24T00:57:55;17.10;99.90
47022;DHT22;32779;52.264;6.154;2023-08-24T01:00:21;17.10;99.90
47022;DHT22;32779;52.264;6.154;2023-08-24T01:02:47;17.20;99.90
47022;DHT22;32779;52.264;6.154;2023-08-24T01:05:12;17.10;99.90
47022;DHT22;32779;52.264;6.154;2023-08-24T01:07:39;17.10;99.90
47022;DHT22;32779;52.264;6.154;2023-08-24T01:10:05;17.10;99.90
47022;DHT22;32779;52.264;6.154;2023-08-24T01:15:58;17.20;99.90
47022;DHT22;32779;52.264;6.154;2023-08-24T01:17:59;17.20;99.90
47022;DHT22;32779;52.264;6.154;2023-08-24T01:20:26;17.20;99.90
47022;DHT22;32779;52.264;6.154;2023-08-24T01:23:27;17.20;99.90
47022;DHT22;32779;52.264;6.154;2023-08-24T01:25:54;17.20;99.90
47022;DHT22;32779;52.264;6.154;2023-08-24T01:28:20;17.20;99.90
47022;DHT22;32779;52.264;6.154;2023-08-24T01:30:47;17.20;99.90
47022;DHT22;32779;52.264;6.154;2023-08-24T01:33:12;17.30;99.90
47022;DHT22;32779;52.264;6.154;2023-08-24T01:35:39;17.20;99.90
47022;DHT22;32779;52.264;6.154;2023-08-24T01:38:04;17.20;99.90
47022;DHT22;32779;52.264;6.154;2023-08-24T01:43:02;17.20;99.90
47022;DHT22;32779;52.264;6.154;2023-08-24T01:45:29;17.20;99.90
47022;DHT22;32779;52.264;6.154;2023-08-24T01:47:55;17.20;99.90
47022;DHT22;32779;52.264;6.154;2023-08-24T01:50:21;17.30;99.90
47022;DHT22;32779;52.264;6.154;2023-08-24T01:52:47;17.30;99.90
47022;DHT22;32779;52.264;6.154;2023-08-24T01:55:13;17.40;99.90
47022;DHT22;32779;52.264;6.154;2023-08-24T01:57:40;17.30;99.90
47022;DHT22;32779;52.264;6.154;2023-08-24T02:00:06;17.30;99.90
47022;DHT22;32779;52.264;6.154;2023-08-24T02:02:32;17.30;99.90
47022;DHT22;32779;52.264;6.154;2023-08-24T02:04:58;17.30;99.90
47022;DHT22;32779;52.264;6.154;2023-08-24T02:07:24;17.30;99.90
47022;DHT22;32779;52.264;6.154;2023-08-24T02:09:49;17.20;99.90
47022;DHT22;32779;52.264;6.154;2023-08-24T02:12:15;17.20;99.90
47022;DHT22;32779;52.264;6.154;2023-08-24T02:14:40;17.20;99.90
47022;DHT22;32779;52.264;6.154;2023-08-24T02:17:06;17.20;99.90
47022;DHT22;32779;52.264;6.154;2023-08-24T02:19:31;17.20;99.90
47022;DHT22;32779;52.264;6.154;2023-08-24T02:21:57;17.20;99.90
47022;DHT22;32779;52.264;6.154;2023-08-24T02:24:22;17.20;99.90
47022;DHT22;32779;52.264;6.154;2023-08-24T02:26:48;17.20;99.90
47022;DHT22;32779;52.264;6.154;2023-08-24T02:29:13;17.20;99.90
47022;DHT22;32779;52.264;6.154;2023-08-24T02:31:39;17.20;99.90
47022;DHT22;32779;52.264;6.154;2023-08-24T02:34:06;17.10;99.90
47022;DHT22;32779;52.264;6.154;2023-08-24T02:36:32;17.10;99.90
47022;DHT22;32779;52.264;6.154;2023-08-24T02:38:58;17.10;99.90
47022;DHT22;32779;52.264;6.154;2023-08-24T02:41:24;17.10;99.90
47022;DHT22;32779;52.264;6.154;2023-08-24T02:43:49;17.10;99.90
47022;DHT22;32779;52.264;6.154;2023-08-24T02:46:15;17.10;99.90
47022;DHT22;32779;52.264;6.154;2023-08-24T02:48:40;17.10;99.90
47022;DHT22;32779;52.264;6.154;2023-08-24T02:51:07;17.10;99.90
47022;DHT22;32779;52.264;6.154;2023-08-24T02:53:33;17.10;99.90
47022;DHT22;32779;52.264;6.154;2023-08-24T02:55:58;17.20;99.90
47022;DHT22;32779;52.264;6.154;2023-08-24T02:58:27;17.20;99.90
47022;DHT22;32779;52.264;6.154;2023-08-24T03:00:52;17.20;99.90
47022;DHT22;32779;52.264;6.154;2023-08-24T03:03:18;17.30;99.90
47022;DHT22;32779;52.264;6.154;2023-08-24T03:08:39;17.40;99.90
47022;DHT22;32779;52.264;6.154;2023-08-24T03:11:05;17.50;99.90
47022;DHT22;32779;52.264;6.154;2023-08-24T03:13:30;17.50;99.90
47022;DHT22;32779;52.264;6.154;2023-08-24T03:15:56;17.50;99.90
47022;DHT22;32779;52.264;6.154;2023-08-24T03:18:22;17.50;99.90
47022;DHT22;32779;52.264;6.154;2023-08-24T03:20:48;17.50;99.90
47022;DHT22;32779;52.264;6.154;2023-08-24T03:23:15;17.40;99.90
47022;DHT22;32779;52.264;6.154;2023-08-24T03:25:41;17.40;99.90
47022;DHT22;32779;52.264;6.154;2023-08-24T03:28:06;17.40;99.90
47022;DHT22;32779;52.264;6.154;2023-08-24T03:30:33;17.40;99.90
47022;DHT22;32779;52.264;6.154;2023-08-24T03:32:58;17.40;99.90
47022;DHT22;32779;52.264;6.154;2023-08-24T03:35:36;17.40;99.90
47022;DHT22;32779;52.264;6.154;2023-08-24T03:38:10;17.40;99.90
47022;DHT22;32779;52.264;6.154;2023-08-24T03:40:36;17.40;99.90
47022;DHT22;32779;52.264;6.154;2023-08-24T03:43:02;17.30;99.90
47022;DHT22;32779;52.264;6.154;2023-08-24T03:45:27;17.40;99.90
47022;DHT22;32779;52.264;6.154;2023-08-24T03:47:53;17.30;99.90
47022;DHT22;32779;52.264;6.154;2023-08-24T03:50:19;17.30;99.90
47022;DHT22;32779;52.264;6.154;2023-08-24T03:52:44;17.40;99.90
47022;DHT22;32779;52.264;6.154;2023-08-24T03:55:09;17.30;99.90
47022;DHT22;32779;52.264;6.154;2023-08-24T03:57:35;17.30;99.90
47022;DHT22;32779;52.264;6.154;2023-08-24T04:00:00;17.30;99.90
47022;DHT22;32779;52.264;6.154;2023-08-24T04:02:26;17.30;99.90
47022;DHT22;32779;52.264;6.154;2023-08-24T04:04:55;17.30;99.90
47022;DHT22;32779;52.264;6.154;2023-08-24T04:07:20;17.30;99.90
47022;DHT22;32779;52.264;6.154;2023-08-24T04:09:46;17.30;99.90
47022;DHT22;32779;52.264;6.154;2023-08-24T04:12:11;17.20;99.90
47022;DHT22;32779;52.264;6.154;2023-08-24T04:14:37;17.20;99.90
47022;DHT22;32779;52.264;6.154;2023-08-24T04:17:02;17.10;99.90
47022;DHT22;32779;52.264;6.154;2023-08-24T04:19:28;17.10;99.90
47022;DHT22;32779;52.264;6.154;2023-08-24T04:21:53;17.10;99.90
47022;DHT22;32779;52.264;6.154;2023-08-24T04:24:19;17.00;99.90
47022;DHT22;32779;52.264;6.154;2023-08-24T04:26:44;17.00;99.90
47022;DHT22;32779;52.264;6.154;2023-08-24T04:29:12;16.90;99.90
47022;DHT22;32779;52.264;6.154;2023-08-24T04:31:37;16.90;99.90
47022;DHT22;32779;52.264;6.154;2023-08-24T04:34:05;16.90;99.90
47022;DHT22;32779;52.264;6.154;2023-08-24T04:36:31;16.90;99.90
47022;DHT22;32779;52.264;6.154;2023-08-24T04:38:56;16.80;99.90
47022;DHT22;32779;52.264;6.154;2023-08-24T04:41:22;16.80;99.90
47022;DHT22;32779;52.264;6.154;2023-08-24T04:43:47;16.70;99.90
47022;DHT22;32779;52.264;6.154;2023-08-24T04:46:13;16.70;99.90
47022;DHT22;32779;52.264;6.154;2023-08-24T04:48:38;16.70;99.90
47022;DHT22;32779;52.264;6.154;2023-08-24T04:51:04;16.70;99.90
47022;DHT22;32779;52.264;6.154;2023-08-24T04:53:30;16.70;99.90
47022;DHT22;32779;52.264;6.154;2023-08-24T04:55:55;16.70;99.90
47022;DHT22;32779;52.264;6.154;2023-08-24T04:58:21;16.70;99.90
47022;DHT22;32779;52.264;6.154;2023-08-24T05:00:47;16.70;99.90
47022;DHT22;32779;52.264;6.154;2023-08-24T05:03:14;16.70;99.90
47022;DHT22;32779;52.264;6.154;2023-08-24T05:05:39;16.70;99.90
47022;DHT22;32779;52.264;6.154;2023-08-24T05:08:05;16.70;99.90
47022;DHT22;32779;52.264;6.154;2023-08-24T05:10:37;16.60;99.90
47022;DHT22;32779;52.264;6.154;2023-08-24T05:13:02;16.60;99.90
47022;DHT22;32779;52.264;6.154;2023-08-24T05:15:28;16.70;99.90
47022;DHT22;32779;52.264;6.154;2023-08-24T05:17:53;16.60;99.90
47022;DHT22;32779;52.264;6.154;2023-08-24T05:20:27;16.70;99.90
47022;DHT22;32779;52.264;6.154;2023-08-24T05:22:53;16.70;99.90
47022;DHT22;32779;52.264;6.154;2023-08-24T05:25:20;16.70;99.90
47022;DHT22;32779;52.264;6.154;2023-08-24T05:27:46;16.70;99.90
47022;DHT22;32779;52.264;6.154;2023-08-24T05:30:12;16.70;99.90
47022;DHT22;32779;52.264;6.154;2023-08-24T05:32:37;16.80;99.90
47022;DHT22;32779;52.264;6.154;2023-08-24T05:35:07;16.80;99.90
47022;DHT22;32779;52.264;6.154;2023-08-24T05:37:33;16.80;99.90
47022;DHT22;32779;52.264;6.154;2023-08-24T05:39:59;16.80;99.90
47022;DHT22;32779;52.264;6.154;2023-08-24T05:42:25;16.80;99.90
47022;DHT22;32779;52.264;6.154;2023-08-24T05:44:51;16.90;99.90
47022;DHT22;32779;52.264;6.154;2023-08-24T05:47:16;16.90;99.90
47022;DHT22;32779;52.264;6.154;2023-08-24T05:49:42;16.90;99.90
47022;DHT22;32779;52.264;6.154;2023-08-24T05:52:07;17.00;99.90
47022;DHT22;32779;52.264;6.154;2023-08-24T05:54:33;17.00;99.90
47022;DHT22;32779;52.264;6.154;2023-08-24T05:56:58;17.10;99.90
47022;DHT22;32779;52.264;6.154;2023-08-24T05:59:26;17.20;99.90
47022;DHT22;32779;52.264;6.154;2023-08-24T06:01:52;17.30;99.90
47022;DHT22;32779;52.264;6.154;2023-08-24T06:04:17;17.40;99.90
47022;DHT22;32779;52.264;6.154;2023-08-24T06:06:43;17.40;99.90
47022;DHT22;32779;52.264;6.154;2023-08-24T06:09:08;17.50;99.90
47022;DHT22;32779;52.264;6.154;2023-08-24T06:11:35;17.60;99.90
47022;DHT22;32779;52.264;6.154;2023-08-24T06:14:01;17.60;99.90
47022;DHT22;32779;52.264;6.154;2023-08-24T06:16:29;17.70;99.90
47022;DHT22;32779;52.264;6.154;2023-08-24T06:18:55;17.70;99.90
47022;DHT22;32779;52.264;6.154;2023-08-24T06:21:20;17.90;99.90
47022;DHT22;32779;52.264;6.154;2023-08-24T06:23:46;17.90;99.90
47022;DHT22;32779;52.264;6.154;2023-08-24T06:26:13;18.10;99.90
47022;DHT22;32779;52.264;6.154;2023-08-24T06:28:38;18.20;99.90
47022;DHT22;32779;52.264;6.154;2023-08-24T06:31:04;18.40;99.90
47022;DHT22;32779;52.264;6.154;2023-08-24T06:33:33;18.50;99.90
47022;DHT22;32779;52.264;6.154;2023-08-24T06:35:59;18.60;99.90
47022;DHT22;32779;52.264;6.154;2023-08-24T06:38:24;18.70;99.90
47022;DHT22;32779;52.264;6.154;2023-08-24T06:40:50;18.90;99.90
47022;DHT22;32779;52.264;6.154;2023-08-24T06:43:16;19.00;99.90
47022;DHT22;32779;52.264;6.154;2023-08-24T06:45:41;19.20;99.90
47022;DHT22;32779;52.264;6.154;2023-08-24T06:48:06;19.30;99.90
47022;DHT22;32779;52.264;6.154;2023-08-24T06:50:33;19.50;99.90
47022;DHT22;32779;52.264;6.154;2023-08-24T06:52:58;19.60;99.90
47022;DHT22;32779;52.264;6.154;2023-08-24T06:55:25;19.80;99.90
47022;DHT22;32779;52.264;6.154;2023-08-24T06:57:50;20.00;99.90
47022;DHT22;32779;52.264;6.154;2023-08-24T07:00:16;20.20;99.90
47022;DHT22;32779;52.264;6.154;2023-08-24T07:02:42;20.40;99.90
47022;DHT22;32779;52.264;6.154;2023-08-24T07:05:08;20.50;99.90
47022;DHT22;32779;52.264;6.154;2023-08-24T07:07:36;20.70;99.90
47022;DHT22;32779;52.264;6.154;2023-08-24T07:10:01;20.80;99.90
47022;DHT22;32779;52.264;6.154;2023-08-24T07:12:27;20.80;99.90
47022;DHT22;32779;52.264;6.154;2023-08-24T07:14:53;20.90;99.90
47022;DHT22;32779;52.264;6.154;2023-08-24T07:17:19;21.10;99.90
47022;DHT22;32779;52.264;6.154;2023-08-24T07:19:44;21.20;99.90
47022;DHT22;32779;52.264;6.154;2023-08-24T07:22:10;21.50;99.90
47022;DHT22;32779;52.264;6.154;2023-08-24T07:24:36;21.60;99.90
47022;DHT22;32779;52.264;6.154;2023-08-24T07:27:02;21.80;99.90
47022;DHT22;32779;52.264;6.154;2023-08-24T07:29:34;21.90;99.90
47022;DHT22;32779;52.264;6.154;2023-08-24T07:31:59;22.10;99.90
47022;DHT22;32779;52.264;6.154;2023-08-24T07:34:25;22.10;99.90
47022;DHT22;32779;52.264;6.154;2023-08-24T07:36:50;22.30;99.90
47022;DHT22;32779;52.264;6.154;2023-08-24T07:39:16;22.40;99.90
47022;DHT22;32779;52.264;6.154;2023-08-24T07:41:41;22.50;99.90
47022;DHT22;32779;52.264;6.154;2023-08-24T07:44:07;22.70;99.90
47022;DHT22;32779;52.264;6.154;2023-08-24T07:46:33;22.80;99.90
47022;DHT22;32779;52.264;6.154;2023-08-24T07:48:58;23.00;99.90
47022;DHT22;32779;52.264;6.154;2023-08-24T07:51:24;23.00;99.90
47022;DHT22;32779;52.264;6.154;2023-08-24T07:53:49;23.10;99.90
47022;DHT22;32779;52.264;6.154;2023-08-24T07:56:17;23.20;99.90
47022;DHT22;32779;52.264;6.154;2023-08-24T07:58:43;23.30;99.90
47022;DHT22;32779;52.264;6.154;2023-08-24T08:01:09;23.40;99.90
47022;DHT22;32779;52.264;6.154;2023-08-24T08:03:34;23.40;99.90
47022;DHT22;32779;52.264;6.154;2023-08-24T08:06:01;23.60;99.90
47022;DHT22;32779;52.264;6.154;2023-08-24T08:08:27;23.70;99.90
47022;DHT22;32779;52.264;6.154;2023-08-24T08:10:59;23.90;99.90
47022;DHT22;32779;52.264;6.154;2023-08-24T08:13:25;24.00;99.90
47022;DHT22;32779;52.264;6.154;2023-08-24T08:15:51;24.20;99.90
47022;DHT22;32779;52.264;6.154;2023-08-24T08:18:16;24.30;99.90
47022;DHT22;32779;52.264;6.154;2023-08-24T08:20:42;24.40;99.90
47022;DHT22;32779;52.264;6.154;2023-08-24T08:23:07;24.40;99.90
47022;DHT22;32779;52.264;6.154;2023-08-24T08:25:33;24.40;99.90
47022;DHT22;32779;52.264;6.154;2023-08-24T08:27:58;24.60;99.90
47022;DHT22;32779;52.264;6.154;2023-08-24T08:30:24;24.60;99.90
47022;DHT22;32779;52.264;6.154;2023-08-24T08:32:49;24.70;99.90
47022;DHT22;32779;52.264;6.154;2023-08-24T08:35:17;24.80;99.90
47022;DHT22;32779;52.264;6.154;2023-08-24T08:37:43;24.80;99.90
47022;DHT22;32779;52.264;6.154;2023-08-24T08:40:09;24.70;99.90
47022;DHT22;32779;52.264;6.154;2023-08-24T08:42:35;24.70;99.90
47022;DHT22;32779;52.264;6.154;2023-08-24T08:45:01;24.80;99.90
47022;DHT22;32779;52.264;6.154;2023-08-24T08:47:28;24.80;99.90
47022;DHT22;32779;52.264;6.154;2023-08-24T08:49:54;24.80;99.90
47022;DHT22;32779;52.264;6.154;2023-08-24T08:52:20;24.70;99.90
47022;DHT22;32779;52.264;6.154;2023-08-24T08:54:45;24.70;99.90
47022;DHT22;32779;52.264;6.154;2023-08-24T08:57:11;24.70;99.90
47022;DHT22;32779;52.264;6.154;2023-08-24T08:59:37;24.60;99.90
47022;DHT22;32779;52.264;6.154;2023-08-24T09:02:02;24.70;99.90
47022;DHT22;32779;52.264;6.154;2023-08-24T09:04:32;24.70;99.90
47022;DHT22;32779;52.264;6.154;2023-08-24T09:06:57;24.70;99.90
47022;DHT22;32779;52.264;6.154;2023-08-24T09:09:26;24.70;99.90
47022;DHT22;32779;52.264;6.154;2023-08-24T09:11:52;24.60;99.90
47022;DHT22;32779;52.264;6.154;2023-08-24T09:14:18;24.60;99.90
47022;DHT22;32779;52.264;6.154;2023-08-24T09:16:44;24.70;99.90
47022;DHT22;32779;52.264;6.154;2023-08-24T09:19:13;24.70;99.90
47022;DHT22;32779;52.264;6.154;2023-08-24T09:21:39;24.70;99.90
47022;DHT22;32779;52.264;6.154;2023-08-24T09:24:06;24.80;99.90
47022;DHT22;32779;52.264;6.154;2023-08-24T09:26:33;24.80;99.90
47022;DHT22;32779;52.264;6.154;2023-08-24T09:28:59;24.90;99.90
47022;DHT22;32779;52.264;6.154;2023-08-24T09:31:34;25.00;99.90
47022;DHT22;32779;52.264;6.154;2023-08-24T09:34:01;25.10;99.90
47022;DHT22;32779;52.264;6.154;2023-08-24T09:36:36;25.10;99.90
47022;DHT22;32779;52.264;6.154;2023-08-24T09:39:06;25.30;99.90
47022;DHT22;32779;52.264;6.154;2023-08-24T09:41:44;25.30;99.90
47022;DHT22;32779;52.264;6.154;2023-08-24T09:44:09;25.60;99.90
47022;DHT22;32779;52.264;6.154;2023-08-24T09:46:36;25.70;99.90
47022;DHT22;32779;52.264;6.154;2023-08-24T09:49:05;25.80;99.90
47022;DHT22;32779;52.264;6.154;2023-08-24T09:51:30;25.90;99.90
47022;DHT22;32779;52.264;6.154;2023-08-24T09:53:57;26.00;99.90
47022;DHT22;32779;52.264;6.154;2023-08-24T09:56:25;26.10;99.90
47022;DHT22;32779;52.264;6.154;2023-08-24T09:58:51;26.10;99.90
47022;DHT22;32779;52.264;6.154;2023-08-24T10:01:17;26.20;99.90
47022;DHT22;32779;52.264;6.154;2023-08-24T10:03:43;26.20;99.90
47022;DHT22;32779;52.264;6.154;2023-08-24T10:06:09;26.30;99.90
47022;DHT22;32779;52.264;6.154;2023-08-24T10:08:36;26.30;99.90
47022;DHT22;32779;52.264;6.154;2023-08-24T10:11:02;26.40;99.90
47022;DHT22;32779;52.264;6.154;2023-08-24T10:13:34;26.40;99.90
47022;DHT22;32779;52.264;6.154;2023-08-24T10:16:02;26.40;99.90
47022;DHT22;32779;52.264;6.154;2023-08-24T10:18:29;26.40;99.90
47022;DHT22;32779;52.264;6.154;2023-08-24T10:20:54;26.50;99.90
47022;DHT22;32779;52.264;6.154;2023-08-24T10:23:21;26.50;99.90
47022;DHT22;32779;52.264;6.154;2023-08-24T10:25:47;26.50;99.90
47022;DHT22;32779;52.264;6.154;2023-08-24T10:28:14;26.50;99.90
47022;DHT22;32779;52.264;6.154;2023-08-24T10:30:41;26.50;99.90
47022;DHT22;32779;52.264;6.154;2023-08-24T10:33:10;26.60;99.90
47022;DHT22;32779;52.264;6.154;2023-08-24T10:35:37;26.70;99.90
47022;DHT22;32779;52.264;6.154;2023-08-24T10:38:08;26.70;99.90
47022;DHT22;32779;52.264;6.154;2023-08-24T10:40:47;26.60;99.90
47022;DHT22;32779;52.264;6.154;2023-08-24T10:43:13;26.60;99.90
47022;DHT22;32779;52.264;6.154;2023-08-24T10:45:57;26.60;99.90
47022;DHT22;32779;52.264;6.154;2023-08-24T10:48:24;26.70;99.90
47022;DHT22;32779;52.264;6.154;2023-08-24T10:53:37;26.90;99.90
47022;DHT22;32779;52.264;6.154;2023-08-24T10:56:13;27.10;99.90
47022;DHT22;32779;52.264;6.154;2023-08-24T10:58:38;27.10;99.90
47022;DHT22;32779;52.264;6.154;2023-08-24T11:01:04;27.20;99.90
47022;DHT22;32779;52.264;6.154;2023-08-24T11:03:33;27.30;99.90
47022;DHT22;32779;52.264;6.154;2023-08-24T11:05:58;27.40;99.90
47022;DHT22;32779;52.264;6.154;2023-08-24T11:11:17;27.30;99.90
47022;DHT22;32779;52.264;6.154;2023-08-24T11:14:12;27.20;99.90
47022;DHT22;32779;52.264;6.154;2023-08-24T11:16:38;27.10;99.90
47022;DHT22;32779;52.264;6.154;2023-08-24T11:19:04;27.10;99.90
47022;DHT22;32779;52.264;6.154;2023-08-24T11:21:32;27.00;99.90
47022;DHT22;32779;52.264;6.154;2023-08-24T11:23:58;27.00;99.90
47022;DHT22;32779;52.264;6.154;2023-08-24T11:26:25;27.10;99.90
47022;DHT22;32779;52.264;6.154;2023-08-24T11:28:53;27.10;99.90
47022;DHT22;32779;52.264;6.154;2023-08-24T11:31:18;27.10;99.90
47022;DHT22;32779;52.264;6.154;2023-08-24T11:33:44;27.10;99.90
47022;DHT22;32779;52.264;6.154;2023-08-24T11:36:09;27.10;99.90
47022;DHT22;32779;52.264;6.154;2023-08-24T11:38:41;27.00;99.90
47022;DHT22;32779;52.264;6.154;2023-08-24T11:41:13;27.00;99.90
47022;DHT22;32779;52.264;6.154;2023-08-24T11:43:39;27.00;99.90
47022;DHT22;32779;52.264;6.154;2023-08-24T11:46:05;26.90;99.90
47022;DHT22;32779;52.264;6.154;2023-08-24T11:48:31;26.80;99.90
47022;DHT22;32779;52.264;6.154;2023-08-24T11:50:59;26.80;99.90
47022;DHT22;32779;52.264;6.154;2023-08-24T11:53:25;26.80;99.90
47022;DHT22;32779;52.264;6.154;2023-08-24T11:55:54;26.70;99.90
47022;DHT22;32779;52.264;6.154;2023-08-24T11:58:19;26.70;99.90
47022;DHT22;32779;52.264;6.154;2023-08-24T12:00:45;26.70;99.90
47022;DHT22;32779;52.264;6.154;2023-08-24T12:03:11;26.70;99.90
47022;DHT22;32779;52.264;6.154;2023-08-24T12:05:37;26.70;99.90
47022;DHT22;32779;52.264;6.154;2023-08-24T12:08:03;26.70;99.90
47022;DHT22;32779;52.264;6.154;2023-08-24T12:10:28;26.60;99.90
47022;DHT22;32779;52.264;6.154;2023-08-24T12:13:06;26.70;99.90
47022;DHT22;32779;52.264;6.154;2023-08-24T12:15:35;26.70;99.90
47022;DHT22;32779;52.264;6.154;2023-08-24T12:18:10;26.70;99.90
47022;DHT22;32779;52.264;6.154;2023-08-24T12:20:37;26.70;99.90
47022;DHT22;32779;52.264;6.154;2023-08-24T12:23:05;26.70;99.90
47022;DHT22;32779;52.264;6.154;2023-08-24T12:25:35;26.70;99.90
47022;DHT22;32779;52.264;6.154;2023-08-24T12:28:13;26.80;99.90
47022;DHT22;32779;52.264;6.154;2023-08-24T12:30:45;26.80;99.90
47022;DHT22;32779;52.264;6.154;2023-08-24T12:33:24;26.80;99.90
47022;DHT22;32779;52.264;6.154;2023-08-24T12:35:50;26.90;99.90
47022;DHT22;32779;52.264;6.154;2023-08-24T12:38:16;26.90;99.90
47022;DHT22;32779;52.264;6.154;2023-08-24T12:40:42;27.00;99.90
47022;DHT22;32779;52.264;6.154;2023-08-24T12:43:07;27.00;99.90
47022;DHT22;32779;52.264;6.154;2023-08-24T12:45:32;27.00;99.90
47022;DHT22;32779;52.264;6.154;2023-08-24T12:47:58;27.00;99.90
47022;DHT22;32779;52.264;6.154;2023-08-24T12:50:23;27.00;99.90
47022;DHT22;32779;52.264;6.154;2023-08-24T12:52:49;27.00;99.90
47022;DHT22;32779;52.264;6.154;2023-08-24T12:55:20;27.00;99.90
47022;DHT22;32779;52.264;6.154;2023-08-24T12:57:46;27.00;99.90
47022;DHT22;32779;52.264;6.154;2023-08-24T13:00:12;27.00;99.90
47022;DHT22;32779;52.264;6.154;2023-08-24T13:02:37;27.00;99.90
47022;DHT22;32779;52.264;6.154;2023-08-24T13:05:03;27.00;99.90
47022;DHT22;32779;52.264;6.154;2023-08-24T13:07:29;27.10;99.90
47022;DHT22;32779;52.264;6.154;2023-08-24T13:09:55;27.20;99.90
47022;DHT22;32779;52.264;6.154;2023-08-24T13:12:20;27.20;99.90
47022;DHT22;32779;52.264;6.154;2023-08-24T13:14:47;27.20;99.90
47022;DHT22;32779;52.264;6.154;2023-08-24T13:17:15;27.10;99.90
47022;DHT22;32779;52.264;6.154;2023-08-24T13:19:40;27.10;99.90
47022;DHT22;32779;52.264;6.154;2023-08-24T13:22:06;27.10;99.90
47022;DHT22;32779;52.264;6.154;2023-08-24T13:24:34;27.00;99.90
47022;DHT22;32779;52.264;6.154;2023-08-24T13:27:02;27.00;99.90
47022;DHT22;32779;52.264;6.154;2023-08-24T13:29:28;26.90;99.90
47022;DHT22;32779;52.264;6.154;2023-08-24T13:31:54;26.80;99.90
47022;DHT22;32779;52.264;6.154;2023-08-24T13:34:22;26.80;99.90
47022;DHT22;32779;52.264;6.154;2023-08-24T13:36:47;26.70;99.90
47022;DHT22;32779;52.264;6.154;2023-08-24T13:39:13;26.60;99.90
47022;DHT22;32779;52.264;6.154;2023-08-24T13:41:38;26.50;99.90
47022;DHT22;32779;52.264;6.154;2023-08-24T13:44:04;26.40;99.90
47022;DHT22;32779;52.264;6.154;2023-08-24T13:46:33;26.30;99.90
47022;DHT22;32779;52.264;6.154;2023-08-24T13:48:58;26.30;99.90
47022;DHT22;32779;52.264;6.154;2023-08-24T13:51:24;26.30;99.90
47022;DHT22;32779;52.264;6.154;2023-08-24T13:53:49;26.30;99.90
47022;DHT22;32779;52.264;6.154;2023-08-24T13:56:15;26.30;99.90
47022;DHT22;32779;52.264;6.154;2023-08-24T13:58:40;26.40;99.90
47022;DHT22;32779;52.264;6.154;2023-08-24T14:01:06;26.40;99.90
47022;DHT22;32779;52.264;6.154;2023-08-24T14:03:31;26.50;99.90
47022;DHT22;32779;52.264;6.154;2023-08-24T14:05:57;26.60;99.90
47022;DHT22;32779;52.264;6.154;2023-08-24T14:08:23;26.60;99.90
47022;DHT22;32779;52.264;6.154;2023-08-24T14:10:49;26.60;99.90
47022;DHT22;32779;52.264;6.154;2023-08-24T14:13:14;26.70;99.90
47022;DHT22;32779;52.264;6.154;2023-08-24T14:15:40;26.70;99.90
47022;DHT22;32779;52.264;6.154;2023-08-24T14:18:06;26.80;99.90
47022;DHT22;32779;52.264;6.154;2023-08-24T14:20:33;26.70;99.90
47022;DHT22;32779;52.264;6.154;2023-08-24T14:23:01;26.80;99.90
47022;DHT22;32779;52.264;6.154;2023-08-24T14:25:27;26.80;99.90
47022;DHT22;32779;52.264;6.154;2023-08-24T14:27:52;26.80;99.90
47022;DHT22;32779;52.264;6.154;2023-08-24T14:30:18;26.80;99.90
47022;DHT22;32779;52.264;6.154;2023-08-24T14:32:43;26.80;99.90
47022;DHT22;32779;52.264;6.154;2023-08-24T14:35:09;26.80;99.90
47022;DHT22;32779;52.264;6.154;2023-08-24T14:37:34;26.70;99.90
47022;DHT22;32779;52.264;6.154;2023-08-24T14:40:00;26.70;99.90
47022;DHT22;32779;52.264;6.154;2023-08-24T14:42:26;26.70;99.90
47022;DHT22;32779;52.264;6.154;2023-08-24T14:44:51;26.70;99.90
47022;DHT22;32779;52.264;6.154;2023-08-24T14:47:17;26.70;99.90
47022;DHT22;32779;52.264;6.154;2023-08-24T14:49:42;26.70;99.90
47022;DHT22;32779;52.264;6.154;2023-08-24T14:52:08;26.70;99.90
47022;DHT22;32779;52.264;6.154;2023-08-24T14:54:33;26.70;99.90
47022;DHT22;32779;52.264;6.154;2023-08-24T14:56:59;26.70;99.90
47022;DHT22;32779;52.264;6.154;2023-08-24T14:59:28;26.60;99.90
47022;DHT22;32779;52.264;6.154;2023-08-24T15:01:53;26.60;99.90
47022;DHT22;32779;52.264;6.154;2023-08-24T15:04:19;26.50;99.90
47022;DHT22;32779;52.264;6.154;2023-08-24T15:06:44;26.40;99.90
47022;DHT22;32779;52.264;6.154;2023-08-24T15:09:10;26.40;99.90
47022;DHT22;32779;52.264;6.154;2023-08-24T15:11:36;26.40;99.90
47022;DHT22;32779;52.264;6.154;2023-08-24T15:14:01;26.30;99.90
47022;DHT22;32779;52.264;6.154;2023-08-24T15:16:27;26.30;99.90
47022;DHT22;32779;52.264;6.154;2023-08-24T15:18:53;26.30;99.90
47022;DHT22;32779;52.264;6.154;2023-08-24T15:21:18;26.20;99.90
47022;DHT22;32779;52.264;6.154;2023-08-24T15:23:44;26.20;99.90
47022;DHT22;32779;52.264;6.154;2023-08-24T15:26:09;26.20;99.90
47022;DHT22;32779;52.264;6.154;2023-08-24T15:28:36;26.20;99.90
47022;DHT22;32779;52.264;6.154;2023-08-24T15:31:01;26.20;99.90
47022;DHT22;32779;52.264;6.154;2023-08-24T15:33:27;26.10;99.90
47022;DHT22;32779;52.264;6.154;2023-08-24T15:35:52;26.00;99.90
47022;DHT22;32779;52.264;6.154;2023-08-24T15:38:18;26.00;99.90
47022;DHT22;32779;52.264;6.154;2023-08-24T15:40:43;26.10;99.90